createdAt,value
2023-01-07T00:02:01.135Z,19.43
2023-01-07T00:07:04.468Z,20.00
2023-01-07T00:12:07.614Z,21.70
2023-01-07T00:17:10.763Z,22.20
2023-01-07T00:22:14.258Z,19.07
2023-01-07T00:27:17.914Z,17.30
2023-01-07T00:32:21.469Z,15.77
2023-01-07T00:37:43.006Z,21.87
2023-01-07T00:42:55.436Z,14.57
2023-01-07T00:47:59.622Z,18.20
2023-01-07T00:53:03.082Z,19.53
2023-01-07T00:58:06.488Z,20.97
2023-01-07T01:03:11.776Z,15.13
2023-01-07T01:08:14.998Z,18.80
2023-01-07T01:13:19.670Z,15.87
2023-01-07T01:18:22.936Z,21.67
2023-01-07T01:23:26.033Z,18.00
2023-01-07T01:28:29.071Z,17.17
2023-01-07T01:33:32.697Z,13.03
2023-01-07T01:38:38.825Z,21.60
2023-01-07T01:43:43.173Z,24.33
2023-01-07T01:48:54.939Z,21.23
2023-01-07T01:53:58.253Z,20.40
2023-01-07T01:59:05.789Z,24.90
2023-01-07T02:04:12.799Z,17.47
2023-01-07T02:09:15.824Z,17.87
2023-01-07T02:15:02.125Z,23.07
2023-01-07T02:20:12.398Z,19.40
2023-01-07T02:25:46.497Z,21.70
2023-01-07T02:31:19.985Z,15.40
2023-01-07T02:36:48.636Z,23.73
2023-01-07T02:41:56.219Z,19.30
2023-01-07T02:47:03.071Z,21.63
2023-01-07T02:52:30.054Z,20.30
2023-01-07T02:57:33.466Z,19.17
2023-01-07T03:03:10.368Z,24.70
2023-01-07T03:08:38.168Z,24.50
2023-01-07T03:13:59.200Z,17.00
2023-01-07T03:19:17.403Z,29.13
2023-01-07T03:24:22.245Z,19.53
2023-01-07T03:29:25.654Z,21.37
2023-01-07T03:34:29.718Z,16.27
2023-01-07T03:39:35.008Z,16.30
2023-01-07T03:44:39.427Z,19.30
2023-01-07T03:49:42.597Z,18.63
2023-01-07T03:54:45.682Z,17.87
2023-01-07T03:59:49.837Z,26.23
2023-01-07T04:04:53.155Z,19.27
2023-01-07T04:09:57.328Z,22.97
2023-01-07T04:15:00.786Z,18.50
2023-01-07T04:20:04.283Z,15.53
2023-01-07T04:25:07.939Z,18.27
2023-01-07T04:30:11.698Z,20.63
2023-01-07T04:35:15.333Z,20.70
2023-01-07T04:40:18.442Z,25.33
2023-01-07T04:45:21.422Z,20.43
2023-01-07T04:50:25.226Z,17.77
2023-01-07T04:55:28.735Z,20.10
2023-01-07T05:00:33.282Z,56.03
2023-01-07T05:05:36.440Z,28.67
2023-01-07T05:10:40.108Z,21.83
2023-01-07T05:15:44.110Z,22.73
2023-01-07T05:20:48.646Z,18.33
2023-01-07T05:25:52.079Z,24.90
2023-01-07T05:30:55.830Z,25.93
2023-01-07T05:35:59.288Z,22.77
2023-01-07T05:41:02.415Z,19.70
2023-01-07T05:46:05.803Z,23.40
2023-01-07T05:51:08.885Z,23.07
2023-01-07T05:56:11.750Z,21.47
2023-01-07T06:01:14.924Z,20.27
2023-01-07T06:06:18.081Z,19.33
2023-01-07T06:11:21.091Z,22.13
2023-01-07T06:16:24.119Z,25.33
2023-01-07T06:21:27.095Z,22.87
2023-01-07T06:26:29.975Z,31.60
2023-01-07T06:31:33.443Z,82.57
2023-01-07T06:36:36.354Z,103.17
2023-01-07T06:41:39.481Z,81.17
2023-01-07T06:46:42.612Z,61.87
2023-01-07T06:51:45.761Z,40.93
2023-01-07T06:56:48.968Z,34.70
2023-01-07T07:01:52.739Z,26.10
2023-01-07T07:06:56.070Z,19.23
2023-01-07T07:11:58.951Z,23.20
2023-01-07T07:17:01.859Z,22.80
2023-01-07T07:22:04.974Z,18.53
2023-01-07T07:27:07.711Z,18.23
2023-01-07T07:32:10.565Z,24.70
2023-01-07T07:37:13.585Z,21.87
2023-01-07T07:42:16.615Z,26.10
2023-01-07T07:47:20.669Z,20.10
2023-01-07T07:52:23.865Z,18.20
2023-01-07T07:57:26.759Z,20.10
2023-01-07T08:02:29.821Z,29.77
2023-01-07T08:07:33.636Z,19.43
2023-01-07T08:12:38.563Z,34.40
2023-01-07T08:17:41.822Z,19.43
2023-01-07T08:22:45.219Z,20.03
2023-01-07T08:27:48.024Z,20.83
2023-01-07T08:32:50.959Z,16.70
2023-01-07T08:38:01.262Z,28.23
2023-01-07T08:43:06.562Z,35.27
2023-01-07T08:48:09.418Z,29.57
2023-01-07T08:53:12.342Z,46.17
2023-01-07T08:58:15.562Z,32.57
2023-01-07T09:03:18.741Z,37.20
2023-01-07T09:08:21.551Z,44.90
2023-01-07T09:13:24.626Z,19.83
2023-01-07T09:18:27.569Z,25.57
2023-01-07T09:23:30.643Z,32.17
2023-01-07T09:28:33.474Z,14.83
2023-01-07T09:33:36.359Z,19.50
2023-01-07T09:38:39.485Z,22.80
2023-01-07T09:44:00.565Z,19.43
2023-01-07T09:49:04.694Z,18.67
2023-01-07T09:54:20.546Z,18.80
2023-01-07T09:59:23.486Z,16.93
2023-01-07T10:04:42.895Z,22.30
2023-01-07T10:09:51.696Z,23.33
2023-01-07T10:15:22.656Z,25.40
2023-01-07T10:20:28.497Z,26.90
2023-01-07T10:25:38.290Z,52.60
2023-01-07T10:30:44.513Z,22.27
2023-01-07T10:35:56.091Z,17.83
2023-01-07T10:41:04.331Z,23.90
2023-01-07T10:46:45.464Z,21.93
2023-01-07T10:52:00.099Z,16.30
2023-01-07T10:57:21.025Z,17.03
2023-01-07T11:02:28.566Z,24.30
2023-01-07T11:07:45.062Z,20.33
2023-01-07T11:12:57.809Z,22.43
2023-01-07T11:18:04.529Z,21.17
2023-01-07T11:23:27.530Z,17.90
2023-01-07T11:28:30.735Z,20.90
2023-01-07T11:34:02.272Z,21.73
2023-01-07T11:39:10.070Z,21.40
2023-01-07T11:44:16.232Z,20.20
2023-01-07T11:49:30.320Z,27.53
2023-01-07T11:54:33.393Z,26.37
2023-01-07T11:59:36.398Z,26.33
2023-01-07T12:04:40.509Z,24.27
2023-01-07T12:09:45.035Z,23.47
2023-01-07T12:14:48.370Z,21.67
2023-01-07T12:20:29.197Z,21.70
2023-01-07T12:25:53.404Z,38.60
2023-01-07T12:31:09.314Z,24.23
2023-01-07T12:36:19.005Z,32.43
2023-01-07T12:41:34.845Z,24.47
2023-01-07T12:46:46.403Z,27.07
2023-01-07T12:52:02.211Z,22.70
2023-01-07T12:57:40.637Z,23.23
2023-01-07T13:03:02.226Z,26.67
2023-01-07T13:08:42.500Z,21.83
2023-01-07T13:13:51.971Z,27.70
2023-01-07T13:18:55.012Z,24.20
2023-01-07T13:24:56.378Z,49.83
2023-01-07T13:30:31.658Z,20.37
2023-01-07T13:36:09.948Z,20.70
2023-01-07T13:41:38.116Z,22.30
2023-01-07T13:46:43.333Z,26.20
2023-01-07T13:51:46.249Z,45.27
2023-01-07T13:56:48.997Z,50.93
2023-01-07T14:02:17.552Z,56.80
2023-01-07T14:07:20.767Z,85.60
2023-01-07T14:12:54.358Z,82.67
2023-01-07T14:18:18.000Z,88.50
2023-01-07T14:23:48.554Z,73.03
2023-01-07T14:29:17.651Z,50.97
2023-01-07T14:34:24.713Z,60.50
2023-01-07T14:39:42.118Z,57.73
2023-01-07T14:44:51.523Z,67.27
2023-01-07T14:50:39.226Z,47.80
2023-01-07T14:56:16.227Z,51.43
2023-01-07T15:01:28.019Z,56.37
2023-01-07T15:06:39.466Z,58.93
2023-01-07T15:12:01.035Z,57.00
2023-01-07T15:17:04.229Z,63.53
2023-01-07T15:22:19.083Z,83.13
2023-01-07T15:27:29.874Z,69.20
2023-01-07T15:32:51.099Z,61.40
2023-01-07T15:37:53.962Z,69.27
2023-01-07T15:42:58.376Z,65.90
2023-01-07T15:48:07.988Z,56.40
2023-01-07T15:53:11.292Z,53.83
2023-01-07T15:58:20.175Z,55.90
2023-01-07T16:03:23.611Z,54.40
2023-01-07T16:08:29.488Z,47.83
2023-01-07T16:13:33.630Z,50.33
2023-01-07T16:18:36.729Z,48.77
2023-01-07T16:23:40.226Z,45.77
2023-01-07T16:28:55.571Z,33.70
2023-01-07T16:34:00.081Z,38.90
2023-01-07T16:39:11.719Z,36.60
2023-01-07T16:44:42.419Z,47.67
2023-01-07T16:49:45.445Z,49.87
2023-01-07T16:54:49.409Z,49.97
2023-01-07T16:59:55.693Z,40.53
2023-01-07T17:05:20.383Z,41.70
2023-01-07T17:10:33.338Z,40.47
2023-01-07T17:15:39.752Z,51.97
2023-01-07T17:21:02.169Z,43.27
2023-01-07T17:26:11.326Z,60.77
2023-01-07T17:31:14.702Z,48.87
2023-01-07T17:36:19.608Z,52.20
2023-01-07T17:41:42.197Z,52.17
2023-01-07T17:46:45.291Z,53.50
2023-01-07T17:51:48.902Z,69.10
2023-01-07T17:56:52.730Z,58.77
2023-01-07T18:01:57.103Z,63.60
2023-01-07T18:07:00.220Z,89.67
2023-01-07T18:12:22.224Z,69.17
2023-01-07T18:17:25.589Z,60.70
2023-01-07T18:22:29.992Z,63.40
2023-01-07T18:27:33.195Z,63.73
2023-01-07T18:32:36.583Z,71.00
2023-01-07T18:37:39.965Z,66.37
2023-01-07T18:42:43.790Z,61.77
2023-01-07T18:47:46.925Z,64.13
2023-01-07T18:52:50.004Z,69.30
2023-01-07T18:57:53.771Z,68.33
2023-01-07T19:03:00.623Z,79.07
2023-01-07T19:08:03.607Z,66.23
2023-01-07T19:13:06.536Z,78.23
2023-01-07T19:18:09.781Z,65.20
2023-01-07T19:23:12.928Z,80.60
2023-01-07T19:28:16.085Z,70.17
2023-01-07T19:33:19.299Z,81.60
2023-01-07T19:38:22.308Z,72.27
2023-01-07T19:43:25.587Z,79.67
2023-01-07T19:48:28.589Z,81.63
2023-01-07T19:53:32.233Z,77.87
2023-01-07T19:58:35.518Z,93.87
2023-01-07T20:03:38.719Z,79.70
2023-01-07T20:08:41.992Z,83.73
2023-01-07T20:13:47.041Z,76.73
2023-01-07T20:18:52.922Z,81.00
2023-01-07T20:23:55.890Z,90.03
2023-01-07T20:28:59.541Z,83.70
2023-01-07T20:34:03.114Z,95.87
2023-01-07T20:39:06.577Z,83.53
2023-01-07T20:44:11.624Z,87.77
2023-01-07T20:49:16.157Z,72.90
2023-01-07T20:54:19.565Z,79.37
2023-01-07T20:59:23.031Z,80.63
2023-01-07T21:04:29.317Z,78.20
2023-01-07T21:09:32.500Z,88.00
2023-01-07T21:14:35.611Z,81.37
2023-01-07T21:19:38.761Z,83.23
2023-01-07T21:24:41.751Z,85.50
2023-01-07T21:29:44.916Z,84.47
2023-01-07T21:34:48.021Z,100.30
2023-01-07T21:39:51.669Z,85.20
2023-01-07T21:44:54.563Z,83.10
2023-01-07T21:49:57.448Z,89.87
2023-01-07T21:55:00.459Z,90.70
2023-01-07T22:00:05.344Z,91.33
2023-01-07T22:05:15.331Z,91.10
2023-01-07T22:10:18.593Z,88.73
2023-01-07T22:15:21.556Z,86.53
2023-01-07T22:20:24.670Z,94.03
2023-01-07T22:25:27.758Z,94.23
2023-01-07T22:30:33.493Z,96.90
2023-01-07T22:35:36.605Z,98.00
2023-01-07T22:40:39.882Z,87.17
2023-01-07T22:45:45.798Z,104.13
2023-01-07T22:50:49.070Z,107.47
2023-01-07T22:55:52.443Z,96.93
2023-01-07T23:00:58.826Z,104.07
2023-01-07T23:06:01.836Z,93.53
2023-01-07T23:11:05.539Z,98.73
2023-01-07T23:16:08.756Z,100.53
2023-01-07T23:21:11.661Z,93.43
2023-01-07T23:26:15.124Z,95.30
2023-01-07T23:31:18.183Z,87.57
2023-01-07T23:36:21.395Z,79.07
2023-01-07T23:41:24.492Z,83.13
2023-01-07T23:46:27.554Z,87.33
2023-01-07T23:51:30.530Z,104.20
2023-01-07T23:56:33.784Z,94.77
